sensor_id;sensor_type;location;lat;lon;timestamp;P1;durP1;ratioP1;P2;durP2;ratioP2
38853;SDS011;24606;51.992;4.198;2024-03-02T00:03:14;0.35;;;0.35;;
38853;SDS011;24606;51.992;4.198;2024-03-02T00:08:19;0.60;;;0.60;;
38853;SDS011;24606;51.992;4.198;2024-03-02T00:13:25;1.17;;;1.10;;
38853;SDS011;24606;51.992;4.198;2024-03-02T00:18:32;0.33;;;0.33;;
38853;SDS011;24606;51.992;4.198;2024-03-02T00:23:37;0.63;;;0.63;;
38853;SDS011;24606;51.992;4.198;2024-03-02T00:28:39;0.45;;;0.45;;
38853;SDS011;24606;51.992;4.198;2024-03-02T00:33:44;0.45;;;0.45;;
38853;SDS011;24606;51.992;4.198;2024-03-02T00:38:49;0.20;;;0.20;;
38853;SDS011;24606;51.992;4.198;2024-03-02T00:44:02;0.20;;;0.20;;
38853;SDS011;24606;51.992;4.198;2024-03-02T00:49:06;0.10;;;0.10;;
38853;SDS011;24606;51.992;4.198;2024-03-02T00:54:21;1.55;;;0.77;;
38853;SDS011;24606;51.992;4.198;2024-03-02T00:59:24;0.10;;;0.10;;
38853;SDS011;24606;51.992;4.198;2024-03-02T01:04:26;0.23;;;0.23;;
38853;SDS011;24606;51.992;4.198;2024-03-02T01:09:30;0.37;;;0.37;;
38853;SDS011;24606;51.992;4.198;2024-03-02T01:14:32;0.68;;;0.68;;
38853;SDS011;24606;51.992;4.198;2024-03-02T01:19:35;0.47;;;0.47;;
38853;SDS011;24606;51.992;4.198;2024-03-02T01:29:41;0.28;;;0.28;;
38853;SDS011;24606;51.992;4.198;2024-03-02T01:34:43;0.43;;;0.43;;
38853;SDS011;24606;51.992;4.198;2024-03-02T01:39:47;0.10;;;0.10;;
38853;SDS011;24606;51.992;4.198;2024-03-02T01:44:49;0.75;;;0.75;;
38853;SDS011;24606;51.992;4.198;2024-03-02T01:49:51;0.43;;;0.43;;
38853;SDS011;24606;51.992;4.198;2024-03-02T01:54:54;0.05;;;0.05;;
38853;SDS011;24606;51.992;4.198;2024-03-02T01:59:57;0.47;;;0.47;;
38853;SDS011;24606;51.992;4.198;2024-03-02T02:04:59;0.20;;;0.20;;
38853;SDS011;24606;51.992;4.198;2024-03-02T02:10:03;0.00;;;0.00;;
38853;SDS011;24606;51.992;4.198;2024-03-02T02:20:23;0.40;;;0.40;;
38853;SDS011;24606;51.992;4.198;2024-03-02T02:25:26;0.03;;;0.03;;
38853;SDS011;24606;51.992;4.198;2024-03-02T02:30:29;0.20;;;0.20;;
38853;SDS011;24606;51.992;4.198;2024-03-02T02:35:33;0.20;;;0.20;;
38853;SDS011;24606;51.992;4.198;2024-03-02T02:40:36;0.00;;;0.00;;
38853;SDS011;24606;51.992;4.198;2024-03-02T02:45:38;0.10;;;0.10;;
38853;SDS011;24606;51.992;4.198;2024-03-02T02:50:41;0.00;;;0.00;;
38853;SDS011;24606;51.992;4.198;2024-03-02T02:55:44;0.10;;;0.10;;
38853;SDS011;24606;51.992;4.198;2024-03-02T03:00:46;1.60;;;0.55;;
38853;SDS011;24606;51.992;4.198;2024-03-02T03:05:48;0.10;;;0.10;;
38853;SDS011;24606;51.992;4.198;2024-03-02T03:10:52;0.10;;;0.10;;
38853;SDS011;24606;51.992;4.198;2024-03-02T03:15:54;0.73;;;0.73;;
38853;SDS011;24606;51.992;4.198;2024-03-02T03:20:56;0.55;;;0.47;;
38853;SDS011;24606;51.992;4.198;2024-03-02T03:26:00;0.10;;;0.10;;
38853;SDS011;24606;51.992;4.198;2024-03-02T03:31:02;0.13;;;0.13;;
38853;SDS011;24606;51.992;4.198;2024-03-02T03:36:04;0.10;;;0.10;;
38853;SDS011;24606;51.992;4.198;2024-03-02T03:41:08;0.17;;;0.17;;
38853;SDS011;24606;51.992;4.198;2024-03-02T03:46:10;0.10;;;0.10;;
38853;SDS011;24606;51.992;4.198;2024-03-02T03:51:12;1.60;;;1.43;;
38853;SDS011;24606;51.992;4.198;2024-03-02T03:56:15;0.20;;;0.20;;
38853;SDS011;24606;51.992;4.198;2024-03-02T04:15:30;0.82;;;0.82;;
38853;SDS011;24606;51.992;4.198;2024-03-02T04:20:34;0.10;;;0.10;;
38853;SDS011;24606;51.992;4.198;2024-03-02T04:25:36;0.38;;;0.38;;
38853;SDS011;24606;51.992;4.198;2024-03-02T04:30:40;0.00;;;0.00;;
38853;SDS011;24606;51.992;4.198;2024-03-02T04:35:42;0.08;;;0.08;;
38853;SDS011;24606;51.992;4.198;2024-03-02T04:40:44;0.10;;;0.10;;
38853;SDS011;24606;51.992;4.198;2024-03-02T04:45:47;0.20;;;0.20;;
38853;SDS011;24606;51.992;4.198;2024-03-02T04:50:49;0.10;;;0.10;;
38853;SDS011;24606;51.992;4.198;2024-03-02T04:55:51;0.00;;;0.00;;
38853;SDS011;24606;51.992;4.198;2024-03-02T05:01:11;0.10;;;0.10;;
38853;SDS011;24606;51.992;4.198;2024-03-02T05:06:13;0.10;;;0.10;;
38853;SDS011;24606;51.992;4.198;2024-03-02T05:11:15;0.10;;;0.10;;
38853;SDS011;24606;51.992;4.198;2024-03-02T05:16:46;0.03;;;0.03;;
38853;SDS011;24606;51.992;4.198;2024-03-02T05:21:48;1.45;;;1.13;;
38853;SDS011;24606;51.992;4.198;2024-03-02T05:26:50;0.67;;;0.40;;
38853;SDS011;24606;51.992;4.198;2024-03-02T05:31:53;0.67;;;0.67;;
38853;SDS011;24606;51.992;4.198;2024-03-02T05:36:55;0.30;;;0.30;;
38853;SDS011;24606;51.992;4.198;2024-03-02T05:41:58;0.20;;;0.20;;
38853;SDS011;24606;51.992;4.198;2024-03-02T05:47:02;0.00;;;0.00;;
38853;SDS011;24606;51.992;4.198;2024-03-02T05:52:04;0.10;;;0.10;;
38853;SDS011;24606;51.992;4.198;2024-03-02T06:02:33;0.30;;;0.30;;
38853;SDS011;24606;51.992;4.198;2024-03-02T06:07:40;0.60;;;0.60;;
38853;SDS011;24606;51.992;4.198;2024-03-02T06:12:42;0.00;;;0.00;;
38853;SDS011;24606;51.992;4.198;2024-03-02T06:17:46;0.10;;;0.10;;
38853;SDS011;24606;51.992;4.198;2024-03-02T06:22:48;0.10;;;0.10;;
38853;SDS011;24606;51.992;4.198;2024-03-02T06:27:50;0.00;;;0.00;;
38853;SDS011;24606;51.992;4.198;2024-03-02T06:32:54;0.10;;;0.10;;
38853;SDS011;24606;51.992;4.198;2024-03-02T06:37:56;0.10;;;0.10;;
38853;SDS011;24606;51.992;4.198;2024-03-02T06:42:58;0.00;;;0.00;;
38853;SDS011;24606;51.992;4.198;2024-03-02T06:48:01;0.00;;;0.00;;
38853;SDS011;24606;51.992;4.198;2024-03-02T06:53:03;0.10;;;0.10;;
38853;SDS011;24606;51.992;4.198;2024-03-02T06:58:05;0.00;;;0.00;;
38853;SDS011;24606;51.992;4.198;2024-03-02T07:03:09;0.20;;;0.20;;
38853;SDS011;24606;51.992;4.198;2024-03-02T07:08:11;0.00;;;0.00;;
38853;SDS011;24606;51.992;4.198;2024-03-02T07:13:13;0.10;;;0.10;;
38853;SDS011;24606;51.992;4.198;2024-03-02T07:18:17;0.00;;;0.00;;
38853;SDS011;24606;51.992;4.198;2024-03-02T07:23:18;0.20;;;0.20;;
38853;SDS011;24606;51.992;4.198;2024-03-02T07:28:23;0.10;;;0.10;;
38853;SDS011;24606;51.992;4.198;2024-03-02T07:33:26;0.10;;;0.10;;
38853;SDS011;24606;51.992;4.198;2024-03-02T07:38:29;0.20;;;0.20;;
38853;SDS011;24606;51.992;4.198;2024-03-02T07:43:31;0.63;;;0.63;;
38853;SDS011;24606;51.992;4.198;2024-03-02T07:48:35;0.10;;;0.10;;
38853;SDS011;24606;51.992;4.198;2024-03-02T07:53:37;0.10;;;0.10;;
38853;SDS011;24606;51.992;4.198;2024-03-02T07:58:39;0.00;;;0.00;;
38853;SDS011;24606;51.992;4.198;2024-03-02T08:08:51;0.08;;;0.08;;
38853;SDS011;24606;51.992;4.198;2024-03-02T08:13:54;0.03;;;0.03;;
38853;SDS011;24606;51.992;4.198;2024-03-02T08:18:57;0.00;;;0.00;;
38853;SDS011;24606;51.992;4.198;2024-03-02T08:24:00;0.20;;;0.20;;
38853;SDS011;24606;51.992;4.198;2024-03-02T08:29:02;0.05;;;0.05;;
38853;SDS011;24606;51.992;4.198;2024-03-02T08:34:06;0.10;;;0.10;;
38853;SDS011;24606;51.992;4.198;2024-03-02T08:39:09;0.15;;;0.15;;
38853;SDS011;24606;51.992;4.198;2024-03-02T08:44:15;0.00;;;0.00;;
38853;SDS011;24606;51.992;4.198;2024-03-02T08:49:19;0.90;;;0.70;;
38853;SDS011;24606;51.992;4.198;2024-03-02T08:54:20;0.08;;;0.08;;
38853;SDS011;24606;51.992;4.198;2024-03-02T08:59:22;0.00;;;0.00;;
38853;SDS011;24606;51.992;4.198;2024-03-02T09:04:26;0.00;;;0.00;;
38853;SDS011;24606;51.992;4.198;2024-03-02T09:09:29;0.10;;;0.10;;
38853;SDS011;24606;51.992;4.198;2024-03-02T09:14:32;3.63;;;0.63;;
38853;SDS011;24606;51.992;4.198;2024-03-02T09:19:36;0.30;;;0.30;;
38853;SDS011;24606;51.992;4.198;2024-03-02T09:24:38;0.15;;;0.15;;
38853;SDS011;24606;51.992;4.198;2024-03-02T09:29:40;1.07;;;1.00;;
38853;SDS011;24606;51.992;4.198;2024-03-02T09:34:44;0.03;;;0.03;;
38853;SDS011;24606;51.992;4.198;2024-03-02T09:39:46;0.10;;;0.10;;
38853;SDS011;24606;51.992;4.198;2024-03-02T09:44:48;0.00;;;0.00;;
38853;SDS011;24606;51.992;4.198;2024-03-02T09:49:51;0.00;;;0.00;;
38853;SDS011;24606;51.992;4.198;2024-03-02T09:54:54;0.10;;;0.10;;
38853;SDS011;24606;51.992;4.198;2024-03-02T09:59:56;0.10;;;0.10;;
38853;SDS011;24606;51.992;4.198;2024-03-02T10:04:59;0.03;;;0.03;;
38853;SDS011;24606;51.992;4.198;2024-03-02T10:10:12;0.03;;;0.03;;
38853;SDS011;24606;51.992;4.198;2024-03-02T10:15:15;6.13;;;0.77;;
38853;SDS011;24606;51.992;4.198;2024-03-02T10:20:26;5.15;;;1.27;;
38853;SDS011;24606;51.992;4.198;2024-03-02T10:25:30;3.60;;;1.27;;
38853;SDS011;24606;51.992;4.198;2024-03-02T10:30:32;5.07;;;0.98;;
38853;SDS011;24606;51.992;4.198;2024-03-02T10:40:39;7.43;;;1.10;;
38853;SDS011;24606;51.992;4.198;2024-03-02T10:45:41;6.88;;;1.17;;
38853;SDS011;24606;51.992;4.198;2024-03-02T10:50:46;4.35;;;1.10;;
38853;SDS011;24606;51.992;4.198;2024-03-02T10:55:48;12.52;;;1.77;;
38853;SDS011;24606;51.992;4.198;2024-03-02T11:01:00;7.55;;;1.30;;
38853;SDS011;24606;51.992;4.198;2024-03-02T11:06:07;6.07;;;1.05;;
38853;SDS011;24606;51.992;4.198;2024-03-02T11:11:13;9.63;;;0.95;;
38853;SDS011;24606;51.992;4.198;2024-03-02T11:16:20;7.00;;;1.38;;
38853;SDS011;24606;51.992;4.198;2024-03-02T11:21:36;4.65;;;0.90;;
38853;SDS011;24606;51.992;4.198;2024-03-02T11:26:40;9.23;;;0.93;;
38853;SDS011;24606;51.992;4.198;2024-03-02T11:37:04;5.65;;;1.48;;
38853;SDS011;24606;51.992;4.198;2024-03-02T11:42:07;6.30;;;1.10;;
38853;SDS011;24606;51.992;4.198;2024-03-02T11:47:10;3.00;;;0.82;;
38853;SDS011;24606;51.992;4.198;2024-03-02T11:52:17;6.40;;;1.38;;
38853;SDS011;24606;51.992;4.198;2024-03-02T11:57:20;6.32;;;1.23;;
38853;SDS011;24606;51.992;4.198;2024-03-02T12:02:22;9.38;;;0.95;;
38853;SDS011;24606;51.992;4.198;2024-03-02T12:07:26;1.80;;;0.70;;
38853;SDS011;24606;51.992;4.198;2024-03-02T12:12:28;2.13;;;0.90;;
38853;SDS011;24606;51.992;4.198;2024-03-02T12:17:30;7.45;;;0.90;;
38853;SDS011;24606;51.992;4.198;2024-03-02T12:22:34;6.65;;;0.98;;
38853;SDS011;24606;51.992;4.198;2024-03-02T12:27:36;6.57;;;1.17;;
38853;SDS011;24606;51.992;4.198;2024-03-02T12:32:39;4.47;;;1.15;;
38853;SDS011;24606;51.992;4.198;2024-03-02T12:37:44;8.45;;;1.63;;
38853;SDS011;24606;51.992;4.198;2024-03-02T12:42:47;5.38;;;0.95;;
38853;SDS011;24606;51.992;4.198;2024-03-02T12:47:49;2.67;;;0.90;;
38853;SDS011;24606;51.992;4.198;2024-03-02T12:52:53;5.50;;;1.20;;
38853;SDS011;24606;51.992;4.198;2024-03-02T12:57:56;6.00;;;0.88;;
38853;SDS011;24606;51.992;4.198;2024-03-02T13:02:59;4.82;;;0.77;;
38853;SDS011;24606;51.992;4.198;2024-03-02T13:08:05;3.47;;;0.90;;
38853;SDS011;24606;51.992;4.198;2024-03-02T13:13:08;17.73;;;1.55;;
38853;SDS011;24606;51.992;4.198;2024-03-02T13:18:10;5.07;;;1.35;;
38853;SDS011;24606;51.992;4.198;2024-03-02T13:28:15;2.95;;;1.00;;
38853;SDS011;24606;51.992;4.198;2024-03-02T13:33:18;6.85;;;1.33;;
38853;SDS011;24606;51.992;4.198;2024-03-02T13:38:24;4.18;;;1.63;;
38853;SDS011;24606;51.992;4.198;2024-03-02T13:43:26;4.82;;;1.05;;
38853;SDS011;24606;51.992;4.198;2024-03-02T13:48:31;13.45;;;1.40;;
38853;SDS011;24606;51.992;4.198;2024-03-02T13:53:35;7.15;;;1.95;;
38853;SDS011;24606;51.992;4.198;2024-03-02T13:58:37;4.20;;;1.30;;
38853;SDS011;24606;51.992;4.198;2024-03-02T14:03:39;6.93;;;1.33;;
38853;SDS011;24606;51.992;4.198;2024-03-02T14:08:43;6.13;;;0.80;;
38853;SDS011;24606;51.992;4.198;2024-03-02T14:13:45;7.18;;;1.20;;
38853;SDS011;24606;51.992;4.198;2024-03-02T14:18:49;6.18;;;0.82;;
38853;SDS011;24606;51.992;4.198;2024-03-02T14:23:53;4.90;;;0.70;;
38853;SDS011;24606;51.992;4.198;2024-03-02T14:28:55;4.00;;;0.90;;
38853;SDS011;24606;51.992;4.198;2024-03-02T14:33:57;5.95;;;1.55;;
38853;SDS011;24606;51.992;4.198;2024-03-02T14:39:01;4.90;;;1.20;;
38853;SDS011;24606;51.992;4.198;2024-03-02T14:44:04;7.57;;;1.50;;
38853;SDS011;24606;51.992;4.198;2024-03-02T14:49:06;5.93;;;1.00;;
38853;SDS011;24606;51.992;4.198;2024-03-02T14:54:10;4.60;;;1.08;;
38853;SDS011;24606;51.992;4.198;2024-03-02T14:59:12;3.50;;;1.10;;
38853;SDS011;24606;51.992;4.198;2024-03-02T15:04:14;5.10;;;1.30;;
38853;SDS011;24606;51.992;4.198;2024-03-02T15:09:20;2.30;;;0.75;;
38853;SDS011;24606;51.992;4.198;2024-03-02T15:14:22;5.68;;;1.10;;
38853;SDS011;24606;51.992;4.198;2024-03-02T15:19:24;6.43;;;2.33;;
38853;SDS011;24606;51.992;4.198;2024-03-02T15:24:27;3.28;;;1.00;;
38853;SDS011;24606;51.992;4.198;2024-03-02T15:29:29;4.30;;;1.00;;
38853;SDS011;24606;51.992;4.198;2024-03-02T15:34:32;4.78;;;1.23;;
38853;SDS011;24606;51.992;4.198;2024-03-02T15:39:35;4.78;;;1.25;;
38853;SDS011;24606;51.992;4.198;2024-03-02T15:44:37;13.18;;;1.58;;
38853;SDS011;24606;51.992;4.198;2024-03-02T15:49:39;3.85;;;1.70;;
38853;SDS011;24606;51.992;4.198;2024-03-02T15:54:42;4.45;;;1.00;;
38853;SDS011;24606;51.992;4.198;2024-03-02T15:59:44;6.35;;;1.63;;
38853;SDS011;24606;51.992;4.198;2024-03-02T16:04:46;6.07;;;1.48;;
38853;SDS011;24606;51.992;4.198;2024-03-02T16:09:50;2.28;;;0.88;;
38853;SDS011;24606;51.992;4.198;2024-03-02T16:14:52;6.72;;;1.00;;
38853;SDS011;24606;51.992;4.198;2024-03-02T16:19:54;4.25;;;1.30;;
38853;SDS011;24606;51.992;4.198;2024-03-02T16:24:59;4.25;;;1.40;;
38853;SDS011;24606;51.992;4.198;2024-03-02T16:30:01;4.97;;;1.52;;
38853;SDS011;24606;51.992;4.198;2024-03-02T16:35:04;3.75;;;0.95;;
38853;SDS011;24606;51.992;4.198;2024-03-02T16:40:08;2.28;;;0.75;;
38853;SDS011;24606;51.992;4.198;2024-03-02T16:45:11;1.73;;;0.80;;
38853;SDS011;24606;51.992;4.198;2024-03-02T16:50:13;3.33;;;0.85;;
38853;SDS011;24606;51.992;4.198;2024-03-02T16:55:17;8.13;;;1.13;;
38853;SDS011;24606;51.992;4.198;2024-03-02T17:00:20;3.20;;;1.10;;
38853;SDS011;24606;51.992;4.198;2024-03-02T17:05:22;3.95;;;0.93;;
38853;SDS011;24606;51.992;4.198;2024-03-02T17:15:28;3.80;;;1.13;;
38853;SDS011;24606;51.992;4.198;2024-03-02T17:20:30;3.08;;;0.98;;
38853;SDS011;24606;51.992;4.198;2024-03-02T17:25:33;4.20;;;0.93;;
38853;SDS011;24606;51.992;4.198;2024-03-02T17:30:35;5.55;;;0.80;;
38853;SDS011;24606;51.992;4.198;2024-03-02T17:35:37;5.88;;;1.13;;
38853;SDS011;24606;51.992;4.198;2024-03-02T17:40:41;4.00;;;1.17;;
38853;SDS011;24606;51.992;4.198;2024-03-02T17:45:44;4.95;;;2.10;;
38853;SDS011;24606;51.992;4.198;2024-03-02T17:50:47;5.65;;;2.53;;
38853;SDS011;24606;51.992;4.198;2024-03-02T17:55:51;5.22;;;2.50;;
38853;SDS011;24606;51.992;4.198;2024-03-02T18:00:53;9.80;;;3.35;;
38853;SDS011;24606;51.992;4.198;2024-03-02T18:05:55;3.53;;;1.58;;
38853;SDS011;24606;51.992;4.198;2024-03-02T18:10:59;2.40;;;1.20;;
38853;SDS011;24606;51.992;4.198;2024-03-02T18:16:01;4.72;;;1.73;;
38853;SDS011;24606;51.992;4.198;2024-03-02T18:21:03;10.23;;;4.35;;
38853;SDS011;24606;51.992;4.198;2024-03-02T18:26:07;13.15;;;4.00;;
38853;SDS011;24606;51.992;4.198;2024-03-02T18:31:09;11.95;;;5.22;;
38853;SDS011;24606;51.992;4.198;2024-03-02T18:36:11;5.82;;;2.58;;
38853;SDS011;24606;51.992;4.198;2024-03-02T18:41:15;9.00;;;4.10;;
38853;SDS011;24606;51.992;4.198;2024-03-02T18:46:17;5.57;;;2.40;;
38853;SDS011;24606;51.992;4.198;2024-03-02T18:51:20;6.72;;;3.03;;
38853;SDS011;24606;51.992;4.198;2024-03-02T18:56:24;10.45;;;4.20;;
38853;SDS011;24606;51.992;4.198;2024-03-02T19:01:26;6.60;;;3.92;;
38853;SDS011;24606;51.992;4.198;2024-03-02T19:06:28;7.80;;;3.67;;
38853;SDS011;24606;51.992;4.198;2024-03-02T19:11:31;7.60;;;3.47;;
38853;SDS011;24606;51.992;4.198;2024-03-02T19:16:33;6.82;;;3.00;;
38853;SDS011;24606;51.992;4.198;2024-03-02T19:21:36;11.05;;;3.92;;
38853;SDS011;24606;51.992;4.198;2024-03-02T19:26:40;7.70;;;2.95;;
38853;SDS011;24606;51.992;4.198;2024-03-02T19:31:42;3.13;;;1.52;;
38853;SDS011;24606;51.992;4.198;2024-03-02T19:36:44;7.60;;;2.08;;
38853;SDS011;24606;51.992;4.198;2024-03-02T19:41:47;6.13;;;1.98;;
38853;SDS011;24606;51.992;4.198;2024-03-02T19:46:49;8.02;;;1.95;;
38853;SDS011;24606;51.992;4.198;2024-03-02T19:51:51;3.10;;;1.88;;
38853;SDS011;24606;51.992;4.198;2024-03-02T19:56:55;5.63;;;1.88;;
38853;SDS011;24606;51.992;4.198;2024-03-02T20:01:57;3.30;;;1.60;;
38853;SDS011;24606;51.992;4.198;2024-03-02T20:06:59;5.40;;;1.95;;
38853;SDS011;24606;51.992;4.198;2024-03-02T20:12:02;4.57;;;1.60;;
38853;SDS011;24606;51.992;4.198;2024-03-02T20:17:06;5.85;;;2.00;;
38853;SDS011;24606;51.992;4.198;2024-03-02T20:22:08;4.57;;;1.70;;
38853;SDS011;24606;51.992;4.198;2024-03-02T20:27:11;4.35;;;2.25;;
38853;SDS011;24606;51.992;4.198;2024-03-02T20:32:14;6.57;;;3.13;;
38853;SDS011;24606;51.992;4.198;2024-03-02T20:37:17;4.43;;;1.77;;
38853;SDS011;24606;51.992;4.198;2024-03-02T20:42:25;11.90;;;3.25;;
38853;SDS011;24606;51.992;4.198;2024-03-02T20:47:27;7.00;;;2.33;;
38853;SDS011;24606;51.992;4.198;2024-03-02T20:52:29;5.00;;;2.13;;
38853;SDS011;24606;51.992;4.198;2024-03-02T20:57:33;6.97;;;2.17;;
38853;SDS011;24606;51.992;4.198;2024-03-02T21:02:35;4.85;;;2.33;;
38853;SDS011;24606;51.992;4.198;2024-03-02T21:12:41;5.65;;;1.88;;
38853;SDS011;24606;51.992;4.198;2024-03-02T21:17:43;2.28;;;1.40;;
38853;SDS011;24606;51.992;4.198;2024-03-02T21:22:45;2.28;;;1.50;;
38853;SDS011;24606;51.992;4.198;2024-03-02T21:27:52;2.75;;;1.65;;
38853;SDS011;24606;51.992;4.198;2024-03-02T21:32:55;3.33;;;1.60;;
38853;SDS011;24606;51.992;4.198;2024-03-02T21:37:57;2.50;;;1.38;;
38853;SDS011;24606;51.992;4.198;2024-03-02T21:43:00;2.50;;;1.42;;
38853;SDS011;24606;51.992;4.198;2024-03-02T21:48:02;2.90;;;1.67;;
38853;SDS011;24606;51.992;4.198;2024-03-02T21:53:05;1.98;;;1.65;;
38853;SDS011;24606;51.992;4.198;2024-03-02T21:58:08;4.10;;;2.00;;
38853;SDS011;24606;51.992;4.198;2024-03-02T22:03:10;7.63;;;2.88;;
38853;SDS011;24606;51.992;4.198;2024-03-02T22:08:13;2.92;;;1.60;;
38853;SDS011;24606;51.992;4.198;2024-03-02T22:13:17;3.65;;;1.70;;
38853;SDS011;24606;51.992;4.198;2024-03-02T22:18:19;2.60;;;1.75;;
38853;SDS011;24606;51.992;4.198;2024-03-02T22:23:21;3.22;;;1.33;;
38853;SDS011;24606;51.992;4.198;2024-03-02T22:28:25;2.13;;;1.30;;
38853;SDS011;24606;51.992;4.198;2024-03-02T22:33:27;2.58;;;1.45;;
38853;SDS011;24606;51.992;4.198;2024-03-02T22:38:29;1.77;;;1.25;;
38853;SDS011;24606;51.992;4.198;2024-03-02T22:43:32;2.08;;;1.27;;
38853;SDS011;24606;51.992;4.198;2024-03-02T22:48:34;4.03;;;1.67;;
38853;SDS011;24606;51.992;4.198;2024-03-02T22:53:36;2.28;;;1.60;;
38853;SDS011;24606;51.992;4.198;2024-03-02T22:58:40;1.80;;;1.08;;
38853;SDS011;24606;51.992;4.198;2024-03-02T23:03:42;3.20;;;1.40;;
38853;SDS011;24606;51.992;4.198;2024-03-02T23:08:44;2.65;;;1.48;;
38853;SDS011;24606;51.992;4.198;2024-03-02T23:13:47;3.15;;;1.60;;
38853;SDS011;24606;51.992;4.198;2024-03-02T23:18:49;5.57;;;2.28;;
38853;SDS011;24606;51.992;4.198;2024-03-02T23:28:55;6.60;;;2.45;;
38853;SDS011;24606;51.992;4.198;2024-03-02T23:33:57;3.45;;;2.75;;
38853;SDS011;24606;51.992;4.198;2024-03-02T23:39:04;5.78;;;1.77;;
38853;SDS011;24606;51.992;4.198;2024-03-02T23:44:08;4.00;;;2.40;;
38853;SDS011;24606;51.992;4.198;2024-03-02T23:49:12;3.15;;;2.45;;
38853;SDS011;24606;51.992;4.198;2024-03-02T23:54:14;4.70;;;2.23;;
38853;SDS011;24606;51.992;4.198;2024-03-02T23:59:17;6.30;;;2.77;;
